createdAt,value
2022-10-01T00:01:55.003Z,1012.27
2022-10-01T00:06:55.196Z,1012.33
2022-10-01T00:11:54.380Z,1012.10
2022-10-01T00:16:52.617Z,1012.17
2022-10-01T00:21:52.831Z,1012.13
2022-10-01T00:26:51.033Z,1012.00
2022-10-01T00:31:50.379Z,1011.91
2022-10-01T00:36:49.417Z,1011.83
2022-10-01T00:41:48.612Z,1011.85
2022-10-01T00:46:48.851Z,1011.87
2022-10-01T00:51:48.017Z,1011.85
2022-10-01T00:56:47.191Z,1011.92
2022-10-01T01:01:45.383Z,1011.93
2022-10-01T01:06:45.574Z,1012.00
2022-10-01T01:11:44.789Z,1012.26
2022-10-01T01:16:43.958Z,1012.26
2022-10-01T01:21:43.206Z,1012.20
2022-10-01T01:26:41.437Z,1012.31
2022-10-01T01:31:41.664Z,1012.31
2022-10-01T01:36:40.846Z,1012.28
2022-10-01T01:41:39.001Z,1012.02
2022-10-01T01:46:38.184Z,1011.88
2022-10-01T01:51:37.355Z,1012.04
2022-10-01T01:56:36.518Z,1012.18
2022-10-01T02:01:38.243Z,1012.21
2022-10-01T02:06:35.965Z,1012.04
2022-10-01T02:11:35.371Z,1012.24
2022-10-01T02:16:33.352Z,1012.27
2022-10-01T02:21:32.686Z,1012.08
2022-10-01T02:26:32.687Z,1012.14
2022-10-01T02:31:30.991Z,1012.00
2022-10-01T02:36:30.089Z,1011.90
2022-10-01T02:41:29.278Z,1011.97
2022-10-01T02:46:29.475Z,1011.83
2022-10-01T02:51:27.652Z,1011.83
2022-10-01T02:56:27.855Z,1011.83
2022-10-01T03:01:26.104Z,1011.81
2022-10-01T03:06:25.285Z,1011.78
2022-10-01T03:11:24.470Z,1011.74
2022-10-01T03:16:24.730Z,1011.65
2022-10-01T03:21:22.905Z,1011.56
2022-10-01T03:26:23.095Z,1011.55
2022-10-01T03:31:21.350Z,1011.61
2022-10-01T03:36:21.567Z,1011.63
2022-10-01T03:41:20.767Z,1011.65
2022-10-01T03:46:18.949Z,1011.58
2022-10-01T03:51:19.939Z,1011.61
2022-10-01T03:56:17.391Z,1011.45
2022-10-01T04:01:17.623Z,1011.46
2022-10-01T04:06:15.799Z,1011.62
2022-10-01T04:11:14.960Z,1011.76
2022-10-01T04:16:14.163Z,1011.79
2022-10-01T04:21:13.301Z,1011.84
2022-10-01T04:26:12.462Z,1011.89
2022-10-01T04:31:11.722Z,1011.83
2022-10-01T04:36:10.993Z,1011.72
2022-10-01T04:41:11.191Z,1011.63
2022-10-01T04:46:09.333Z,1011.62
2022-10-01T04:51:08.492Z,1011.69
2022-10-01T04:56:07.674Z,1011.69
2022-10-01T05:01:06.866Z,1011.63
2022-10-01T05:06:06.059Z,1011.65
2022-10-01T05:11:06.380Z,1011.64
2022-10-01T05:16:04.720Z,1011.71
2022-10-01T05:21:03.819Z,1011.75
2022-10-01T05:26:03.139Z,1011.74
2022-10-01T05:31:02.550Z,1011.81
2022-10-01T05:36:01.692Z,1011.97
2022-10-01T05:41:02.003Z,1011.94
2022-10-01T05:46:02.433Z,1012.00
2022-10-01T05:50:59.527Z,1011.79
2022-10-01T05:55:58.820Z,1011.85
2022-10-01T06:00:58.133Z,1011.86
2022-10-01T06:05:59.445Z,1011.92
2022-10-01T06:10:56.748Z,1012.05
2022-10-01T06:15:57.080Z,1012.24
2022-10-01T06:20:56.390Z,1012.30
2022-10-01T06:25:54.701Z,1012.23
2022-10-01T06:30:55.057Z,1012.10
2022-10-01T06:35:54.149Z,1012.12
2022-10-01T06:40:53.451Z,1012.09
2022-10-01T06:45:51.803Z,1012.15
2022-10-01T06:50:52.888Z,1012.10
2022-10-01T06:55:50.176Z,1012.08
2022-10-01T07:00:49.591Z,1011.98
2022-10-01T07:05:47.714Z,1011.90
2022-10-01T07:10:49.037Z,1011.94
2022-10-01T07:15:47.353Z,1011.85
2022-10-01T07:20:47.656Z,1011.92
2022-10-01T07:25:46.979Z,1011.74
2022-10-01T07:30:45.293Z,1011.74
2022-10-01T07:35:45.598Z,1011.79
2022-10-01T07:40:44.910Z,1011.70
2022-10-01T07:45:43.317Z,1011.75
2022-10-01T07:50:42.450Z,1011.51
2022-10-01T07:55:41.771Z,1011.50
2022-10-01T08:00:42.115Z,1011.48
2022-10-01T08:05:40.297Z,1011.54
2022-10-01T08:10:39.420Z,1011.67
2022-10-01T08:15:40.713Z,1011.63
2022-10-01T08:20:37.000Z,1011.61
2022-10-01T08:25:38.339Z,1011.63
2022-10-01T08:30:36.623Z,1011.64
2022-10-01T08:35:35.950Z,1011.61
2022-10-01T08:40:35.253Z,1011.44
2022-10-01T08:45:35.558Z,1011.56
2022-10-01T08:50:33.813Z,1011.58
2022-10-01T08:55:35.071Z,1011.64
2022-10-01T09:00:33.356Z,1011.58
2022-10-01T09:05:31.631Z,1011.64
2022-10-01T09:10:31.995Z,1011.51
2022-10-01T09:15:30.133Z,1011.44
2022-10-01T09:20:29.431Z,1011.40
2022-10-01T09:25:29.710Z,1011.34
2022-10-01T09:30:27.996Z,1011.27
2022-10-01T09:35:29.297Z,1011.18
2022-10-01T09:40:27.573Z,1011.14
2022-10-01T09:45:26.978Z,1011.11
2022-10-01T09:50:25.139Z,1011.03
2022-10-01T09:55:24.401Z,1011.15
2022-10-01T10:00:22.717Z,1011.28
2022-10-01T10:05:23.832Z,1011.39
2022-10-01T10:10:25.576Z,1011.45
2022-10-01T10:15:22.244Z,1011.54
2022-10-01T10:20:21.575Z,1011.53
2022-10-01T10:25:19.882Z,1011.51
2022-10-01T10:30:19.247Z,1011.71
2022-10-01T10:35:19.375Z,1011.50
2022-10-01T10:40:17.664Z,1011.61
2022-10-01T10:45:16.998Z,1011.62
2022-10-01T10:50:17.217Z,1011.56
2022-10-01T10:55:15.423Z,1011.59
2022-10-01T11:00:15.637Z,1011.78
2022-10-01T11:05:14.865Z,1011.70
2022-10-01T11:10:13.108Z,1011.59
2022-10-01T11:15:12.279Z,1011.66
2022-10-01T11:20:11.464Z,1011.56
2022-10-01T11:25:10.669Z,1011.46
2022-10-01T11:30:10.852Z,1011.61
2022-10-01T11:35:09.039Z,1011.54
2022-10-01T11:40:08.236Z,1011.43
2022-10-01T11:45:10.417Z,1011.56
2022-10-01T11:50:06.570Z,1011.82
2022-10-01T11:55:05.794Z,1011.89
2022-10-01T12:00:04.956Z,1011.92
2022-10-01T12:05:06.190Z,1011.95
2022-10-01T12:10:03.339Z,1011.94
2022-10-01T12:15:06.478Z,1011.79
2022-10-01T12:20:01.786Z,1011.84
2022-10-01T12:25:00.949Z,1011.73
2022-10-01T12:30:00.124Z,1011.73
2022-10-01T12:34:59.313Z,1011.72
2022-10-01T12:39:59.527Z,1011.93
2022-10-01T12:44:58.717Z,1012.28
2022-10-01T12:49:56.890Z,1012.38
2022-10-01T12:54:57.076Z,1012.39
2022-10-01T12:59:55.237Z,1012.54
2022-10-01T13:04:55.433Z,1012.43
2022-10-01T13:09:53.617Z,1012.54
2022-10-01T13:14:52.801Z,1012.55
2022-10-01T13:19:51.985Z,1012.52
2022-10-01T13:24:52.177Z,1012.57
2022-10-01T13:29:51.350Z,1012.70
2022-10-01T13:34:50.538Z,1012.90
2022-10-01T13:39:48.729Z,1012.92
2022-10-01T13:44:47.913Z,1012.94
2022-10-01T13:49:47.099Z,1012.96
2022-10-01T13:54:47.293Z,1012.87
2022-10-01T13:59:45.516Z,1012.83
2022-10-01T14:04:44.702Z,1012.67
2022-10-01T14:09:43.908Z,1012.56
2022-10-01T14:14:43.129Z,1012.62
2022-10-01T14:19:42.317Z,1012.54
2022-10-01T14:24:42.482Z,1012.74
2022-10-01T14:29:40.662Z,1012.70
2022-10-01T14:34:39.824Z,1012.56
2022-10-01T14:39:40.987Z,1012.46
2022-10-01T14:44:38.164Z,1012.52
2022-10-01T14:49:37.362Z,1012.73
2022-10-01T14:54:37.540Z,1012.86
2022-10-01T14:59:35.754Z,1012.78
2022-10-01T15:04:34.945Z,1012.84
2022-10-01T15:09:34.161Z,1012.98
2022-10-01T15:14:33.353Z,1013.10
2022-10-01T15:19:32.557Z,1013.10
2022-10-01T15:24:32.738Z,1013.19
2022-10-01T15:29:30.926Z,1012.94
2022-10-01T15:34:30.118Z,1013.16
2022-10-01T15:39:30.324Z,1013.26
2022-10-01T15:44:28.644Z,1013.16
2022-10-01T15:49:27.815Z,1013.20
2022-10-01T15:54:29.023Z,1013.42
2022-10-01T15:59:27.183Z,1013.32
2022-10-01T16:04:25.350Z,1013.18
2022-10-01T16:09:24.528Z,1013.26
2022-10-01T16:14:23.823Z,1013.35
2022-10-01T16:19:25.014Z,1013.31
2022-10-01T16:24:22.177Z,1013.15
2022-10-01T16:29:21.331Z,1013.24
2022-10-01T16:34:20.505Z,1013.45
2022-10-01T16:39:20.066Z,1013.42
2022-10-01T16:44:19.010Z,1013.52
2022-10-01T16:49:18.167Z,1013.46
2022-10-01T16:54:18.326Z,1013.40
2022-10-01T16:59:17.538Z,1013.39
2022-10-01T17:04:15.783Z,1013.45
2022-10-01T17:09:13.977Z,1013.54
2022-10-01T17:14:14.347Z,1013.43
2022-10-01T17:19:12.373Z,1013.74
2022-10-01T17:24:13.578Z,1014.06
2022-10-01T17:29:11.751Z,1014.01
2022-10-01T17:34:11.916Z,1013.97
2022-10-01T17:39:11.070Z,1013.96
2022-10-01T17:44:09.248Z,1014.01
2022-10-01T17:49:09.406Z,1014.09
2022-10-01T17:54:07.562Z,1014.22
2022-10-01T17:59:06.752Z,1014.10
2022-10-01T18:04:05.917Z,1014.24
2022-10-01T18:09:06.104Z,1014.26
2022-10-01T18:14:05.260Z,1014.28
2022-10-01T18:29:00.955Z,1014.64
2022-10-01T18:34:01.172Z,1014.80
2022-10-01T18:39:00.373Z,1014.85
2022-10-01T18:44:01.567Z,1015.10
2022-10-01T18:48:59.745Z,1015.12
2022-10-01T18:53:57.913Z,1015.20
2022-10-01T18:58:57.103Z,1015.38
2022-10-01T19:03:55.319Z,1015.58
2022-10-01T19:08:58.545Z,1015.36
2022-10-01T19:13:54.708Z,1015.41
2022-10-01T19:18:54.889Z,1015.48
2022-10-01T19:23:53.057Z,1015.71
2022-10-01T19:28:52.594Z,1015.56
2022-10-01T19:33:51.549Z,1015.52
2022-10-01T19:38:50.781Z,1015.58
2022-10-01T19:43:48.993Z,1015.64
2022-10-01T19:48:50.197Z,1015.52
2022-10-01T19:53:48.417Z,1015.70
2022-10-01T19:58:47.604Z,1015.82
2022-10-01T20:03:47.787Z,1016.10
2022-10-01T20:08:45.956Z,1016.24
2022-10-01T20:13:47.137Z,1016.49
2022-10-01T20:18:45.369Z,1016.59
2022-10-01T20:23:44.557Z,1016.71
2022-10-01T20:28:42.735Z,1016.82
2022-10-01T20:33:41.902Z,1016.95
2022-10-01T20:38:41.118Z,1017.15
2022-10-01T20:43:41.294Z,1017.13
2022-10-01T20:48:39.489Z,1017.09
2022-10-01T20:53:39.653Z,1017.11
2022-10-01T20:58:37.839Z,1017.18
2022-10-01T21:03:37.007Z,1017.23
2022-10-01T21:08:37.209Z,1017.12
2022-10-01T21:13:35.377Z,1017.09
2022-10-01T21:18:33.577Z,1017.23
2022-10-01T21:23:33.793Z,1017.38
2022-10-01T21:28:32.013Z,1017.39
2022-10-01T21:33:33.242Z,1017.41
2022-10-01T21:38:30.500Z,1017.44
2022-10-01T21:43:30.644Z,1017.36
2022-10-01T21:48:31.817Z,1017.34
2022-10-01T21:53:29.316Z,1017.40
2022-10-01T21:58:28.129Z,1017.40
2022-10-01T22:03:27.339Z,1017.53
2022-10-01T22:08:27.565Z,1017.61
2022-10-01T22:13:24.783Z,1017.61
2022-10-01T22:18:25.006Z,1017.67
2022-10-01T22:23:24.196Z,1017.81
2022-10-01T22:28:23.405Z,1017.92
2022-10-01T22:33:24.573Z,1017.97
2022-10-01T22:38:21.816Z,1017.83
2022-10-01T22:43:21.990Z,1017.97
2022-10-01T22:48:20.182Z,1018.07
2022-10-01T22:53:19.398Z,1018.08
2022-10-01T22:58:18.591Z,1018.13
2022-10-01T23:03:17.791Z,1018.13
2022-10-01T23:08:17.994Z,1018.10
2022-10-01T23:13:17.201Z,1018.17
2022-10-01T23:18:16.440Z,1018.17
2022-10-01T23:23:15.676Z,1018.27
2022-10-01T23:28:13.906Z,1018.35
2022-10-01T23:33:13.100Z,1018.42
2022-10-01T23:38:13.297Z,1018.47
2022-10-01T23:43:12.458Z,1018.45
2022-10-01T23:48:15.268Z,1018.53
2022-10-01T23:53:10.821Z,1018.52
2022-10-01T23:58:08.982Z,1018.53
